Time;durP1;ratioP1;P1;durP2;ratioP2;P2;SDS_P1;SDS_P2;PMS_P1;PMS_P2;Temp;Humidity;BMP_temperature;BMP_pressure;BME280_temperature;BME280_humidity;BME280_pressure;Samples;Min_cycle;Max_cycle;Signal;HPM_P1;HPM_P2
2020/12/03 03:41:23;;;;;;;12.70;5.50;;;5.40;99.90;;;;;;3959821;27;21061;31
2020/12/03 04:31:05;;;;;;;7.90;4.43;;;5.50;99.90;;;;;;3403375;31;21121;31
2020/12/03 04:37:57;;;;;;;15.20;4.00;;;;;;;;;;3509337;33;20121;-95
2020/12/03 07:14:25;;;;;;;17.30;4.20;;;6.10;99.90;;;;;;3848643;28;20114;-93
2020/12/03 07:23:42;;;;;;;15.57;4.03;;;;;;;;;;3851065;28;21002;-92
2020/12/03 07:45:46;;;;;;;15.20;4.53;;;6.20;99.90;;;;;;3620192;28;20114;-93
2020/12/03 07:52:17;;;;;;;17.55;4.57;;;;;;;;;;3556541;28;21476;-93
2020/12/03 07:55:28;;;;;;;11.98;3.88;;;6.40;99.90;;;;;;3461645;34;20202;-92
2020/12/03 07:58:02;;;;;;;14.05;3.72;;;;;;;;;;3462529;34;20113;-91
2020/12/03 08:00:46;;;;;;;16.52;4.35;;;6.30;99.90;;;;;;3464279;34;20106;-92
2020/12/03 08:04:03;;;;;;;9.77;4.50;;;;;;;;;;3506528;33;20124;-92
2020/12/03 08:06:41;;;;;;;16.20;4.50;;;;;;;;;;3449470;34;20110;-93
2020/12/03 08:09:27;;;;;;;22.60;6.00;;;6.30;99.90;;;;;;3441596;41;20070;-90
2020/12/03 08:12:02;;;;;;;15.95;5.22;;;;;;;;;;3458914;41;20124;-91
2020/12/03 08:14:58;;;;;;;12.68;6.22;;;6.30;99.90;;;;;;3505209;34;20141;-91
2020/12/03 08:17:33;;;;;;;20.50;4.65;;;;;;;;;;3444171;34;20141;-92
2020/12/03 08:20:06;;;;;;;14.40;4.75;;;;;;;;;;3460193;34;20125;-92
2020/12/03 08:22:42;;;;;;;14.35;4.60;;;;;;;;;;3464392;41;20113;-90
2020/12/03 08:28:33;;;;;;;16.60;3.88;;;6.30;99.90;;;;;;3461108;35;20125;-89
2020/12/03 08:31:01;;;;;;;34.58;6.65;;;;;;;;;;3509649;33;20141;-93
2020/12/03 08:33:43;;;;;;;11.32;4.10;;;;;;;;;;3462388;33;20125;-90
2020/12/03 08:36:42;;;;;;;;;;;6.40;99.90;;;;;;3459862;34;20109;-92
2020/12/03 08:39:38;;;;;;;22.88;6.70;;;6.20;99.90;;;;;;3481541;34;20006;-91
2020/12/03 08:42:32;;;;;;;10.55;4.40;;;;;;;;;;3453123;41;20112;-91
2020/12/03 08:45:13;;;;;;;13.63;4.63;;;;;;;;;;3444207;41;20090;-91
2020/12/03 08:47:50;;;;;;;14.18;4.35;;;;;;;;;;3460553;41;20122;-92
2020/12/03 08:50:32;;;;;;;13.95;3.63;;;;;;;;;;3450750;34;20125;-91
2020/12/03 08:53:29;;;;;;;11.95;4.47;;;;;;;;;;3441372;41;20113;-92
2020/12/03 08:56:19;;;;;;;12.93;5.10;;;;;;;;;;3483197;33;20141;-90
2020/12/03 08:59:25;;;;;;;10.98;2.72;;;6.50;99.90;;;;;;3448023;41;20133;-89
2020/12/03 09:02:19;;;;;;;12.83;4.50;;;6.50;99.90;;;;;;3461589;34;20117;-88
2020/12/03 09:05:00;;;;;;;15.65;3.97;;;;;;;;;;3460245;41;20137;-88
2020/12/03 09:07:43;;;;;;;13.23;4.80;;;6.40;99.90;;;;;;3451107;41;20094;-88
2020/12/03 09:10:20;;;;;;;18.38;4.07;;;6.30;99.90;;;;;;3458487;41;20134;-90
2020/12/03 09:12:54;;;;;;;7.85;3.63;;;;;;;;;;3446867;34;20140;-90
2020/12/03 09:15:25;;;;;;;15.50;3.70;;;;;;;;;;3448176;41;20487;-89
2020/12/03 09:17:59;;;;;;;14.00;3.15;;;6.60;99.90;;;;;;3485232;33;20476;-88
2020/12/03 09:20:30;;;;;;;;;;;6.60;99.90;;;;;;3449735;41;20121;-89
2020/12/03 09:23:04;;;;;;;5.68;3.20;;;;;;;;;;3453293;34;19986;-87
2020/12/03 09:25:38;;;;;;;11.57;4.03;;;;;;;;;;3446098;41;20129;-90
2020/12/03 09:28:10;;;;;;;10.55;3.45;;;;;;;;;;3455998;34;20122;-93
2020/12/03 09:30:47;;;;;;;6.30;3.13;;;;;;;;;;3447013;34;20145;-90
2020/12/03 09:33:23;;;;;;;11.02;3.35;;;6.60;99.90;;;;;;3449279;34;20118;-92
2020/12/03 09:35:59;;;;;;;8.70;3.60;;;;;;;;;;3444341;34;20442;-89
2020/12/03 09:38:53;;;;;;;4.30;3.15;;;;;;;;;;3452264;41;20109;-89
2020/12/03 09:41:28;;;;;;;8.00;2.65;;;;;;;;;;3460894;33;20146;-90
2020/12/03 09:44:10;;;;;;;7.75;3.17;;;;;;;;;;3441746;41;20133;-94
2020/12/03 09:50:31;;;;;;;9.35;3.60;;;;;;;;;;3442456;41;20063;-93
2020/12/03 09:53:21;;;;;;;7.47;2.53;;;;;;;;;;3447328;41;20154;-94
2020/12/03 09:56:03;;;;;;;10.35;3.33;;;;;;;;;;3447767;41;20161;-93
2020/12/03 09:58:45;;;;;;;9.07;3.42;;;;;;;;;;3430092;41;20123;-93
2020/12/03 10:01:18;;;;;;;11.95;4.30;;;6.90;99.90;;;;;;3443634;34;20224;-89
2020/12/03 10:04:24;;;;;;;9.00;3.83;;;6.70;99.90;;;;;;3431071;34;20098;-91
2020/12/03 10:07:06;;;;;;;2.75;2.17;;;6.90;99.90;;;;;;3440358;41;20188;-89
2020/12/03 10:09:33;;;;;;;6.63;3.30;;;;;;;;;;3436898;34;20166;-90
2020/12/03 10:13:06;;;;;;;9.10;3.25;;;7.20;99.90;;;;;;3440309;41;20131;-89
2020/12/03 10:16:03;;;;;;;2.95;2.45;;;6.90;99.90;;;;;;3402212;42;20163;-88
2020/12/03 10:18:43;;;;;;;4.07;2.50;;;;;;;;;;3429532;34;20522;-88
2020/12/03 10:21:25;;;;;;;6.68;3.05;;;7.00;99.90;;;;;;3450246;34;20134;-89
2020/12/03 10:24:09;;;;;;;8.45;2.65;;;7.00;99.90;;;;;;3471326;33;20123;-88
2020/12/03 10:26:57;;;;;;;3.72;2.53;;;;;;;;;;3467440;41;20128;-89
2020/12/03 10:29:40;;;;;;;8.05;2.33;;;;;;;;;;3466528;33;20287;-90
2020/12/03 10:32:37;;;;;;;8.57;2.35;;;;;;;;;;3471580;34;20122;-93
2020/12/03 10:35:40;;;;;;;10.02;2.45;;;7.10;99.90;;;;;;3469917;34;20120;-91
2020/12/03 10:38:44;;;;;;;8.27;4.40;;;7.00;99.90;;;;;;3505441;33;20122;-91
2020/12/03 10:41:18;;;;;;;15.38;5.35;;;;;;;;;;3450910;34;20097;-90
2020/12/03 10:43:51;;;;;;;4.85;3.95;;;7.10;99.90;;;;;;3458266;33;20087;-90
2020/12/03 10:46:34;;;;;;;6.28;3.45;;;7.10;99.90;;;;;;3456280;41;20115;-91
2020/12/03 10:49:40;;;;;;;3.22;2.38;;;7.20;99.90;;;;;;3496003;34;20107;-90
2020/12/03 10:53:04;;;;;;;4.78;3.10;;;7.20;99.90;;;;;;3449865;41;20086;-93
2020/12/03 10:56:24;;;;;;;7.78;2.47;;;7.30;99.90;;;;;;3462115;34;20126;-91
2020/12/03 10:59:32;;;;;;;8.48;3.20;;;;;;;;;;3488742;34;20109;-92
2020/12/03 11:02:26;;;;;;;8.85;2.58;;;7.30;99.90;;;;;;3460142;41;20142;-91
2020/12/03 11:05:05;;;;;;;10.32;4.75;;;;;;;;;;3472514;33;20150;-91
2020/12/03 11:07:37;;;;;;;9.13;3.80;;;7.40;99.90;;;;;;3487272;33;20086;-91
2020/12/03 11:10:16;;;;;;;6.00;2.67;;;;;;;;;;3456912;34;20117;-88
2020/12/03 11:12:49;;;;;;;3.45;2.15;;;;;;;;;;3439914;34;20129;-91
2020/12/03 11:15:21;;;;;;;3.00;1.77;;;7.20;99.90;;;;;;3455619;33;20125;-92
2020/12/03 11:18:12;;;;;;;4.65;3.70;;;7.50;99.90;;;;;;3459475;34;20125;-90
2020/12/03 11:21:14;;;;;;;6.43;3.03;;;7.50;99.90;;;;;;3504520;33;20132;-94
2020/12/03 11:24:11;;;;;;;8.20;2.08;;;;;;;;;;3451656;34;20118;-92
2020/12/03 11:26:54;;;;;;;3.00;1.75;;;;;;;;;;3460101;34;20105;-89
2020/12/03 11:29:37;;;;;;;4.57;1.63;;;;;;;;;;3462505;34;20106;-93
2020/12/03 11:32:08;;;;;;;1.50;1.40;;;;;;;;;;3451433;41;20118;-90
2020/12/03 11:34:40;;;;;;;3.33;1.63;;;7.60;99.90;;;;;;3459971;34;20107;-91
2020/12/03 11:37:11;;;;;;;4.47;1.85;;;;;;;;;;3453325;34;20145;-91
2020/12/03 11:40:08;;;;;;;1.63;1.52;;;7.70;99.90;;;;;;3460882;33;20158;-92
2020/12/03 11:49:22;;;;;;;1.33;1.23;;;7.70;99.90;;;;;;3446813;41;20009;-91
2020/12/03 11:52:14;;;;;;;4.25;1.75;;;;;;;;;;3448402;41;20150;-91
2020/12/03 11:54:51;;;;;;;2.83;2.22;;;;;;;;;;3451818;41;20146;-92
2020/12/03 11:57:28;;;;;;;5.82;2.30;;;;;;;;;;3451156;34;20142;-92
2020/12/03 11:59:59;;;;;;;6.88;3.22;;;;;;;;;;3441698;34;20139;-91
2020/12/03 12:02:53;;;;;;;4.72;1.58;;;7.80;99.90;;;;;;3452848;34;20121;-91
2020/12/03 12:09:20;;;;;;;2.72;1.92;;;;;;;;;;3471567;34;20113;-93
2020/12/03 12:12:05;;;;;;;5.00;1.80;;;;;;;;;;3435918;41;20122;-91
2020/12/03 12:14:45;;;;;;;1.60;1.30;;;;;;;;;;3447378;34;20114;-91
2020/12/03 12:17:35;;;;;;;7.15;1.80;;;;;;;;;;3438175;34;20570;-91
2020/12/03 12:20:28;;;;;;;4.93;1.95;;;7.80;99.90;;;;;;3454855;41;20153;-90
2020/12/03 12:23:00;;;;;;;8.10;3.15;;;;;;;;;;3455131;34;20142;-91
2020/12/03 12:25:37;;;;;;;6.32;2.88;;;;;;;;;;3441303;41;20109;-93
2020/12/03 12:28:09;;;;;;;;;;;7.80;99.90;;;;;;3467766;33;20107;-92
2020/12/03 12:30:51;;;;;;;14.90;4.13;;;;;;;;;;3446958;41;20070;-91
2020/12/03 12:33:26;;;;;;;10.85;6.38;;;;;;;;;;3465013;33;20146;-91
2020/12/03 12:36:09;;;;;;;9.88;6.15;;;;;;;;;;3504640;33;20094;-91
2020/12/03 12:38:54;;;;;;;16.45;6.72;;;;;;;;;;3455424;34;20121;-91
2020/12/03 12:41:33;;;;;;;16.27;6.13;;;;;;;;;;3450410;34;20129;-90
2020/12/03 12:44:07;;;;;;;6.70;3.08;;;;;;;;;;3452133;41;20142;-91
2020/12/03 12:46:39;;;;;;;7.60;3.10;;;;;;;;;;3456914;34;20137;-90
2020/12/03 12:49:14;;;;;;;7.50;3.90;;;7.90;99.90;;;;;;3445454;41;20105;-91
2020/12/03 12:52:04;;;;;;;10.80;3.00;;;;;;;;;;3455945;34;20121;-93
2020/12/03 12:54:44;;;;;;;7.68;4.28;;;;;;;;;;3484139;33;20145;-92
2020/12/03 12:57:53;;;;;;;11.55;4.40;;;7.90;99.90;;;;;;3457091;41;20110;-91
2020/12/03 13:00:30;;;;;;;9.05;5.60;;;;;;;;;;3454504;33;20168;-90
2020/12/03 13:03:19;;;;;;;14.10;5.32;;;;;;;;;;3455037;34;20114;-91
2020/12/03 13:05:53;;;;;;;19.63;6.40;;;7.80;99.90;;;;;;3463002;33;20145;-90
2020/12/03 13:08:39;;;;;;;15.30;5.30;;;;;;;;;;3450287;41;20210;-92
2020/12/03 13:11:43;;;;;;;10.88;3.95;;;;;;;;;;3493427;33;20128;-92
2020/12/03 13:14:31;;;;;;;8.90;3.10;;;;;;;;;;3467944;41;20109;-92
2020/12/03 13:17:16;;;;;;;5.85;2.42;;;;;;;;;;3444404;41;20113;-90
2020/12/03 13:19:49;;;;;;;5.65;4.05;;;;;;;;;;3454846;41;20125;-91
2020/12/03 13:22:40;;;;;;;7.60;2.03;;;;;;;;;;3469417;34;20121;-91
2020/12/03 13:25:12;;;;;;;7.10;2.58;;;;;;;;;;3439617;34;20138;-90
2020/12/03 13:27:45;;;;;;;7.97;1.80;;;;;;;;;;3470941;34;20122;-91
2020/12/03 13:30:22;;;;;;;6.10;3.25;;;;;;;;;;3510644;33;20174;-92
2020/12/03 13:32:57;;;;;;;8.85;3.72;;;;;;;;;;3485783;33;20130;-92
2020/12/03 13:35:35;;;;;;;14.65;4.00;;;;;;;;;;3466460;34;20109;-91
2020/12/03 13:38:16;;;;;;;26.05;9.43;;;;;;;;;;3460968;41;20148;-91
2020/12/03 13:41:10;;;;;;;27.52;8.52;;;;;;;;;;3458279;41;20110;-91
2020/12/03 13:43:55;;;;;;;28.52;11.43;;;;;;;;;;3463679;34;20163;-92
2020/12/03 13:47:06;;;;;;;21.65;8.30;;;8.10;99.90;;;;;;3449114;34;20138;-92
2020/12/03 13:49:41;;;;;;;29.17;9.63;;;;;;;;;;3446877;34;20106;-90
2020/12/03 13:52:15;;;;;;;32.75;8.30;;;;;;;;;;3445610;34;20118;-90
2020/12/03 13:54:58;;;;;;;28.70;13.57;;;;;;;;;;3459220;33;20122;-91
2020/12/03 13:57:30;;;;;;;30.77;10.48;;;;;;;;;;3458597;33;20122;-93
2020/12/03 14:00:02;;;;;;;28.05;9.20;;;;;;;;;;3466330;33;20114;-90
2020/12/03 14:02:39;;;;;;;13.27;5.78;;;;;;;;;;3454637;41;20114;-91
2020/12/03 14:05:26;;;;;;;20.73;6.82;;;;;;;;;;3454549;33;20126;-92
2020/12/03 14:08:01;;;;;;;7.18;2.60;;;;;;;;;;3451207;41;20119;-92
2020/12/03 14:10:49;;;;;;;5.32;2.72;;;;;;;;;;3458663;34;20121;-92
2020/12/03 14:13:39;;;;;;;6.82;2.38;;;;;;;;;;3452642;41;20106;-89
2020/12/03 14:19:57;;;;;;;10.90;2.75;;;;;;;;;;3459641;41;20728;-92
2020/12/03 14:22:54;;;;;;;5.00;2.50;;;;;;;;;;3448122;34;20122;-92
2020/12/03 14:25:55;;;;;;;5.20;2.15;;;;;;;;;;3451432;41;20680;-92
2020/12/03 14:31:48;;;;;;;10.10;2.60;;;;;;;;;;3653261;35;20081;-92
2020/12/03 14:38:16;;;;;;;6.10;2.28;;;;;;;;;;3433007;41;20586;-90
2020/12/03 14:41:19;;;;;;;7.05;2.35;;;;;;;;;;3424169;41;20138;-92
2020/12/03 14:44:26;;;;;;;6.95;2.30;;;;;;;;;;3451026;34;20502;-92
2020/12/03 14:47:31;;;;;;;5.07;1.88;;;;;;;;;;3451777;34;20116;-94
2020/12/03 14:50:27;;;;;;;4.32;2.65;;;;;;;;;;3468848;34;20131;-91
2020/12/03 14:53:08;;;;;;;2.35;2.08;;;;;;;;;;3441570;34;20125;-91
2020/12/03 14:55:54;;;;;;;4.35;2.20;;;;;;;;;;3433638;34;20134;-91
2020/12/03 14:58:27;;;;;;;9.05;2.55;;;;;;;;;;3438476;34;20126;-93
2020/12/03 15:01:03;;;;;;;4.93;2.33;;;;;;;;;;3447893;34;20110;-92
2020/12/03 15:03:38;;;;;;;8.07;1.75;;;;;;;;;;3442390;34;20103;-92
2020/12/03 15:06:26;;;;;;;5.50;1.70;;;;;;;;;;3454871;34;20094;-92
2020/12/03 15:09:12;;;;;;;1.55;1.45;;;;;;;;;;3449402;34;20124;-89
2020/12/03 15:12:21;;;;;;;14.98;2.33;;;8.70;99.90;;;;;;3472526;34;20102;-91
2020/12/03 15:15:47;;;;;;;9.63;2.50;;;8.10;99.90;;;;;;3448315;34;20078;-91
2020/12/03 15:18:41;;;;;;;12.43;5.40;;;;;;;;;;3447671;34;20119;-91
2020/12/03 15:21:37;;;;;;;12.77;5.57;;;8.10;99.90;;;;;;3444491;34;20090;-90
2020/12/03 15:24:51;;;;;;;21.23;5.85;;;;;;;;;;3446945;34;20133;-89
2020/12/03 15:27:24;;;;;;;25.40;7.97;;;;;;;;;;3449117;34;20102;-89
2020/12/03 15:30:03;;;;;;;23.95;9.57;;;8.10;99.90;;;;;;3437718;41;20109;-91
2020/12/03 15:32:35;;;;;;;18.27;8.10;;;;;;;;;;3432857;34;20118;-86
2020/12/03 15:35:04;;;;;;;9.95;2.30;;;;;;;;;;3431210;41;20125;-88
2020/12/03 15:37:32;;;;;;;12.85;3.05;;;;;;;;;;3446413;34;20118;-90
2020/12/03 15:40:14;;;;;;;9.50;2.72;;;;;;;;;;3435044;41;20138;-88
2020/12/03 15:42:46;;;;;;;8.27;2.90;;;;;;;;;;3435671;41;20157;-89
2020/12/03 15:45:21;;;;;;;3.15;1.50;;;;;;;;;;3439325;34;20110;-85
2020/12/03 15:48:24;;;;;;;8.32;3.08;;;7.90;99.90;;;;;;3443374;41;20079;-90
2020/12/03 15:51:07;;;;;;;2.35;1.15;;;;;;;;;;3465106;34;20133;-89
2020/12/03 15:53:40;;;;;;;4.07;2.63;;;;;;;;;;3455728;34;20081;-90
2020/12/03 15:56:08;;;;;;;2.22;1.42;;;;;;;;;;3446494;34;20170;-89
2020/12/03 15:58:51;;;;;;;2.35;1.60;;;;;;;;;;3446659;41;20118;-87
2020/12/03 16:01:44;;;;;;;2.90;1.65;;;;;;;;;;3464457;34;20109;-90
2020/12/03 16:04:34;;;;;;;2.83;1.98;;;;;;;;;;3456416;34;20556;-90
2020/12/03 16:07:09;;;;;;;4.65;2.17;;;;;;;;;;3452397;41;20114;-89
2020/12/03 16:09:47;;;;;;;10.45;4.47;;;;;;;;;;3441103;33;20126;-90
2020/12/03 16:12:29;;;;;;;2.55;2.03;;;;;;;;;;3454265;41;20121;-88
2020/12/03 16:15:05;;;;;;;2.17;1.42;;;;;;;;;;3444409;34;20110;-89
2020/12/03 16:17:44;;;;;;;3.35;1.33;;;;;;;;;;3456846;34;20113;-87
2020/12/03 16:20:57;;;;;;;7.22;3.50;;;;;;;;;;3457038;34;20125;-89
2020/12/03 16:23:36;;;;;;;2.75;1.02;;;7.50;99.90;;;;;;3444316;41;20234;-90
2020/12/03 16:26:25;;;;;;;2.40;1.27;;;;;;;;;;3460487;33;20098;-88
2020/12/03 16:32:42;;;;;;;3.67;1.50;;;;;;;;;;3447142;41;20786;-88
2020/12/03 16:35:13;;;;;;;1.85;1.58;;;;;;;;;;3454424;34;20164;-88
2020/12/03 16:37:55;;;;;;;;;;;7.10;99.90;;;;;;3447073;34;20078;-88
2020/12/03 16:40:53;;;;;;;3.63;1.48;;;;;;;;;;3449633;41;19983;-90
2020/12/03 16:43:49;;;;;;;2.83;1.70;;;;;;;;;;3441774;41;20113;-90
2020/12/03 16:47:13;;;;;;;3.42;1.67;;;7.00;99.90;;;;;;3452508;34;20140;-89
2020/12/03 16:49:46;;;;;;;3.22;1.70;;;;;;;;;;3410084;34;20121;-90
2020/12/03 16:52:37;;;;;;;4.72;1.70;;;;;;;;;;3465445;34;20115;-93
2020/12/03 17:01:50;;;;;;;3.13;1.83;;;;;;;;;;3445408;34;20071;-91
2020/12/03 17:04:37;;;;;;;1.70;1.60;;;;;;;;;;3450355;41;20145;-91
2020/12/03 17:07:22;;;;;;;3.60;1.77;;;;;;;;;;3438350;34;20114;-93
2020/12/03 17:10:40;;;;;;;3.28;1.77;;;6.30;99.90;;;;;;3449401;41;20141;-90
2020/12/03 17:16:56;;;;;;;2.30;1.50;;;;;;;;;;3441090;34;20126;-91
2020/12/03 17:19:59;;;;;;;4.55;1.95;;;;;;;;;;3454355;34;20122;-92
2020/12/03 17:26:44;;;;;;;2.83;1.77;;;;;;;;;;3442343;34;20522;-92
2020/12/03 17:30:05;;;;;;;3.53;2.00;;;5.90;99.90;;;;;;3475942;34;20106;-92
2020/12/03 17:32:44;;;;;;;2.50;1.90;;;;;;;;;;3461306;35;20082;-92
2020/12/03 17:35:50;;;;;;;1.80;1.70;;;;;;;;;;3462252;34;20126;-93
2020/12/03 17:39:12;;;;;;;2.78;2.20;;;;;;;;;;3453982;34;20142;-91
2020/12/03 17:42:11;;;;;;;2.20;1.77;;;5.60;99.90;;;;;;3447123;34;20118;-93
2020/12/03 17:45:04;;;;;;;4.18;2.92;;;;;;;;;;3441832;34;20111;-93
2020/12/03 17:47:43;;;;;;;5.85;2.90;;;;;;;;;;3459330;34;20110;-93
2020/12/03 17:50:32;;;;;;;5.18;2.70;;;;;;;;;;3492885;34;20087;-93
2020/12/03 17:53:06;;;;;;;6.05;3.15;;;;;;;;;;3440155;41;20097;-90
2020/12/03 17:56:25;;;;;;;3.95;2.60;;;5.40;99.90;;;;;;3438708;34;20102;-92
2020/12/03 18:08:23;;;;;;;8.15;5.07;;;5.30;99.90;;;;;;3468715;41;20109;-92
2020/12/03 18:11:01;;;;;;;10.88;3.42;;;;;;;;;;3440062;41;20154;-90
2020/12/03 18:13:58;;;;;;;6.18;3.08;;;;;;;;;;3447818;34;20106;-90
2020/12/03 18:23:25;;;;;;;4.85;3.42;;;;;;;;;;2368732;31;20089;-92
2020/12/03 18:26:39;;;;;;;8.35;4.15;;;;;;;;;;3465500;34;20129;-92
2020/12/03 18:34:07;;;;;;;5.75;3.28;;;;;;;;;;3476436;34;20535;-92
2020/12/03 18:37:00;;;;;;;7.75;3.60;;;;;;;;;;3444146;41;20132;-91
2020/12/03 18:40:35;;;;;;;8.98;5.05;;;4.70;99.90;;;;;;3435696;34;20142;-90
2020/12/03 18:43:49;;;;;;;39.53;16.92;;;;;;;;;;3436530;41;20141;-91
2020/12/03 18:46:55;;;;;;;72.30;32.33;;;;;;;;;;3444971;34;20149;-92
2020/12/03 18:50:05;;;;;;;73.07;37.92;;;;;;;;;;3456678;34;20109;-91
2020/12/03 18:53:17;;;;;;;94.97;43.35;;;4.60;99.90;;;;;;3483144;34;20094;-90
2020/12/03 18:56:19;;;;;;;81.07;38.88;;;;;;;;;;3452674;34;20141;-91
2020/12/03 18:59:12;;;;;;;87.35;40.45;;;;;;;;;;3460206;34;20146;-90
2020/12/03 19:01:49;;;;;;;80.78;36.63;;;;;;;;;;3447872;41;20206;-93
2020/12/03 19:05:04;;;;;;;86.13;41.00;;;4.40;99.90;;;;;;3443912;41;20109;-91
2020/12/03 19:08:17;;;;;;;85.22;40.42;;;4.30;99.90;;;;;;3461049;41;20350;-91
2020/12/03 19:11:07;;;;;;;87.43;42.72;;;;;;;;;;3445634;34;20106;-91
2020/12/03 19:13:51;;;;;;;102.32;39.28;;;;;;;;;;3447130;34;20113;-92
2020/12/03 19:16:39;;;;;;;113.13;41.97;;;;;;;;;;3444581;41;20134;-91
2020/12/03 19:20:02;;;;;;;98.25;41.83;;;4.20;99.90;;;;;;3450915;41;20122;-91
2020/12/03 19:23:13;;;;;;;98.03;40.83;;;;;;;;;;3444473;34;20098;-92
2020/12/03 19:26:33;;;;;;;86.85;44.03;;;;;;;;;;3461869;34;20159;-90
2020/12/03 19:30:17;;;;;;;92.68;41.35;;;4.20;99.90;;;;;;3454160;34;20666;-92
2020/12/03 19:33:53;;;;;;;88.75;39.38;;;;;;;;;;3510758;34;20106;-93
2020/12/03 19:48:35;;;;;;;92.03;46.88;;;;;;;;;;3435160;41;20122;-92
2020/12/03 19:51:22;;;;;;;93.50;42.20;;;;;;;;;;3424720;41;20107;-93
2020/12/03 19:54:32;;;;;;;61.55;29.73;;;;;;;;;;3440748;41;20115;-93
2020/12/03 19:57:13;;;;;;;49.88;23.80;;;;;;;;;;3427286;34;20147;-93
2020/12/03 20:00:05;;;;;;;47.10;22.10;;;;;;;;;;3437233;34;20807;-92
2020/12/03 20:02:53;;;;;;;46.33;23.85;;;;;;;;;;3417760;41;20137;-92
2020/12/03 20:05:43;;;;;;;31.63;16.17;;;;;;;;;;3426095;34;20064;-93
2020/12/03 20:08:38;;;;;;;29.73;15.07;;;4.20;99.90;;;;;;3430933;34;20125;-93
2020/12/03 20:11:31;;;;;;;37.05;16.63;;;;;;;;;;3423853;41;20235;-93
2020/12/03 20:14:18;;;;;;;38.28;18.17;;;;;;;;;;3430199;41;20130;-92
2020/12/03 20:17:09;;;;;;;36.42;17.40;;;;;;;;;;3433564;41;20118;-92
2020/12/03 20:19:55;;;;;;;36.93;20.33;;;;;;;;;;3439632;41;20121;-92
2020/12/03 20:22:54;;;;;;;40.40;18.83;;;;;;;;;;3473083;33;20114;-93
2020/12/03 20:26:01;;;;;;;45.85;21.48;;;;;;;;;;3452510;41;20162;-90
2020/12/03 20:29:07;;;;;;;37.25;21.52;;;;;;;;;;3442662;41;20101;-92
2020/12/03 20:32:04;;;;;;;33.58;18.25;;;4.40;99.90;;;;;;3448783;41;20075;-91
2020/12/03 20:34:44;;;;;;;36.83;19.70;;;;;;;;;;3449315;34;20098;-93
2020/12/03 20:37:31;;;;;;;40.67;20.52;;;;;;;;;;3438480;34;20089;-92
2020/12/03 20:40:21;;;;;;;36.90;19.40;;;;;;;;;;3462839;33;20114;-94
2020/12/03 20:47:08;;;;;;;53.95;25.95;;;;;;;;;;3444979;34;20118;-93
2020/12/03 20:51:14;;;;;;;40.30;24.50;;;4.50;99.90;;;;;;3460764;34;20079;-94
2020/12/03 20:58:10;;;;;;;;;;;4.60;99.90;;;;;;3466570;41;20121;-95
2020/12/03 21:08:19;;;;;;;51.08;27.45;;;4.50;99.90;;;;;;3788641;28;20078;-92
2020/12/03 21:11:15;;;;;;;55.45;31.45;;;;;;;;;;3462861;34;20117;-93
2020/12/03 21:13:58;;;;;;;57.67;29.55;;;;;;;;;;3447337;41;20118;-92
2020/12/03 21:17:22;;;;;;;66.10;30.63;;;;;;;;;;3459599;41;20110;-92
2020/12/03 21:20:48;;;;;;;61.03;35.33;;;;;;;;;;3460546;41;20109;-93
2020/12/03 21:24:15;;;;;;;81.57;37.42;;;;;;;;;;3469784;33;20130;-91
2020/12/03 21:27:04;;;;;;;80.50;40.75;;;;;;;;;;3459297;34;20106;-92
2020/12/03 21:30:09;;;;;;;68.82;39.95;;;;;;;;;;3445345;34;20107;-91
2020/12/03 21:32:57;;;;;;;71.22;36.85;;;;;;;;;;3496297;34;20094;-91
2020/12/03 21:36:20;;;;;;;75.80;34.30;;;4.60;99.90;;;;;;3461180;34;20113;-93
2020/12/03 21:39:43;;;;;;;68.20;37.38;;;;;;;;;;3467682;34;20070;-92
2020/12/03 21:43:05;;;;;;;63.78;33.25;;;;;;;;;;3467045;41;20112;-93
2020/12/03 21:45:54;;;;;;;65.13;33.08;;;;;;;;;;3539303;35;20285;-93
2020/12/03 21:52:08;;;;;;;60.30;30.40;;;;;;;;;;3667570;28;20098;-93
2020/12/03 22:01:16;;;;;;;59.30;27.92;;;;;;;;;;3095410;28;20389;-92
2020/12/03 22:08:21;;;;;;;44.90;26.00;;;;;;;;;;3252157;32;15088228;-94
2020/12/03 22:11:24;;;;;;;52.47;26.38;;;;;;;;;;3637130;32;20092;-91
2020/12/03 22:17:51;;;;;;;47.97;25.27;;;;;;;;;;3612568;39;20124;-94
2020/12/03 22:21:15;;;;;;;39.00;23.88;;;;;;;;;;3613000;32;20116;-93
2020/12/03 22:24:38;;;;;;;33.85;19.25;;;4.80;99.90;;;;;;3607582;32;20126;-93
2020/12/03 22:27:56;;;;;;;33.20;16.80;;;;;;;;;;3615294;32;20116;-91
2020/12/03 22:35:28;;;;;;;27.25;14.80;;;;;;;;;;3602291;40;20070;-94
2020/12/03 22:45:01;;;;;;;26.85;14.23;;;;;;;;;;3725044;26;20081;-93
2020/12/03 22:47:56;;;;;;;29.17;14.55;;;;;;;;;;3610508;39;20074;-94
2020/12/03 22:51:31;;;;;;;28.35;14.60;;;;;;;;;;3596352;40;20112;-92
2020/12/03 22:54:22;;;;;;;26.25;14.25;;;;;;;;;;3575501;40;20525;-92
2020/12/03 22:57:39;;;;;;;25.13;12.52;;;4.80;99.90;;;;;;3627994;32;20093;31
2020/12/03 23:00:50;;;;;;;25.40;13.57;;;;;;;;;;3642185;34;20109;-94
2020/12/03 23:04:07;;;;;;;23.33;13.35;;;;;;;;;;3622273;32;20133;-92
2020/12/03 23:10:05;;;;;;;24.77;12.75;;;;;;;;;;2928699;38;20105;-94
2020/12/03 23:13:11;;;;;;;24.88;14.50;;;;;;;;;;3606129;32;20125;-94
2020/12/03 23:16:01;;;;;;;26.92;13.60;;;;;;;;;;3572682;32;20128;-93
2020/12/03 23:18:31;;;;;;;24.70;13.85;;;;;;;;;;3580019;32;20117;-93
2020/12/03 23:21:22;;;;;;;27.60;14.63;;;;;;;;;;3571016;40;20117;-94
2020/12/03 23:24:10;;;;;;;25.25;13.90;;;;;;;;;;3597833;32;20140;-92
2020/12/03 23:27:32;;;;;;;28.80;14.60;;;4.90;99.90;;;;;;3584608;40;20096;-93
2020/12/03 23:30:30;;;;;;;26.45;14.95;;;;;;;;;;3592553;32;20078;-93
2020/12/03 23:33:13;;;;;;;26.25;14.40;;;;;;;;;;3723153;32;20137;-93
2020/12/03 23:41:44;;;;;;;28.88;13.45;;;5.10;99.90;;;;;;4030444;27;21389;-94
2020/12/03 23:51:54;;;;;;;31.88;14.77;;;;;;;;;;3996803;27;21322;31
2020/12/03 23:54:53;;;;;;;37.47;18.85;;;;;;;;;;3694220;35;20099;-95
2020/12/03 23:57:51;;;;;;;33.97;18.13;;;;;;;;;;3527645;40;20147;-95
